sensor_id;sensor_type;location;lat;lon;timestamp;P1;durP1;ratioP1;P2;durP2;ratioP2
27209;SDS011;14721;42.668;23.386;2022-12-18T00:02:17;8.17;;;4.33;;
27209;SDS011;14721;42.668;23.386;2022-12-18T00:04:45;9.47;;;4.23;;
27209;SDS011;14721;42.668;23.386;2022-12-18T00:07:11;6.73;;;3.90;;
27209;SDS011;14721;42.668;23.386;2022-12-18T00:09:37;8.17;;;4.00;;
27209;SDS011;14721;42.668;23.386;2022-12-18T00:12:03;8.70;;;4.73;;
27209;SDS011;14721;42.668;23.386;2022-12-18T00:14:32;8.70;;;4.30;;
27209;SDS011;14721;42.668;23.386;2022-12-18T00:16:58;8.40;;;4.50;;
27209;SDS011;14721;42.668;23.386;2022-12-18T00:19:28;7.70;;;3.97;;
27209;SDS011;14721;42.668;23.386;2022-12-18T00:21:55;7.77;;;4.23;;
27209;SDS011;14721;42.668;23.386;2022-12-18T00:24:23;7.40;;;4.40;;
27209;SDS011;14721;42.668;23.386;2022-12-18T00:26:49;8.57;;;4.27;;
27209;SDS011;14721;42.668;23.386;2022-12-18T00:29:15;8.47;;;4.47;;
27209;SDS011;14721;42.668;23.386;2022-12-18T00:31:41;8.00;;;4.27;;
27209;SDS011;14721;42.668;23.386;2022-12-18T00:34:09;8.93;;;4.13;;
27209;SDS011;14721;42.668;23.386;2022-12-18T00:36:39;9.17;;;4.87;;
27209;SDS011;14721;42.668;23.386;2022-12-18T00:39:06;9.20;;;4.67;;
27209;SDS011;14721;42.668;23.386;2022-12-18T00:41:41;7.00;;;4.07;;
27209;SDS011;14721;42.668;23.386;2022-12-18T00:44:26;9.57;;;4.60;;
27209;SDS011;14721;42.668;23.386;2022-12-18T00:46:51;8.93;;;4.53;;
27209;SDS011;14721;42.668;23.386;2022-12-18T00:49:19;8.73;;;4.47;;
27209;SDS011;14721;42.668;23.386;2022-12-18T00:51:47;13.00;;;5.20;;
27209;SDS011;14721;42.668;23.386;2022-12-18T00:54:15;7.33;;;4.30;;
27209;SDS011;14721;42.668;23.386;2022-12-18T00:56:41;8.70;;;4.70;;
27209;SDS011;14721;42.668;23.386;2022-12-18T00:59:08;6.90;;;4.07;;
27209;SDS011;14721;42.668;23.386;2022-12-18T01:01:33;9.07;;;4.90;;
27209;SDS011;14721;42.668;23.386;2022-12-18T01:04:00;8.23;;;4.33;;
27209;SDS011;14721;42.668;23.386;2022-12-18T01:06:27;9.20;;;4.00;;
27209;SDS011;14721;42.668;23.386;2022-12-18T01:08:54;7.97;;;4.07;;
27209;SDS011;14721;42.668;23.386;2022-12-18T01:11:20;7.77;;;4.07;;
27209;SDS011;14721;42.668;23.386;2022-12-18T01:13:47;7.27;;;3.97;;
27209;SDS011;14721;42.668;23.386;2022-12-18T01:16:20;7.83;;;4.23;;
27209;SDS011;14721;42.668;23.386;2022-12-18T01:18:52;8.03;;;4.67;;
27209;SDS011;14721;42.668;23.386;2022-12-18T01:21:20;7.13;;;3.30;;
27209;SDS011;14721;42.668;23.386;2022-12-18T01:23:52;9.27;;;4.37;;
27209;SDS011;14721;42.668;23.386;2022-12-18T01:26:20;7.70;;;4.60;;
27209;SDS011;14721;42.668;23.386;2022-12-18T01:28:46;9.73;;;5.33;;
27209;SDS011;14721;42.668;23.386;2022-12-18T01:31:20;8.93;;;4.33;;
27209;SDS011;14721;42.668;23.386;2022-12-18T01:33:51;9.67;;;4.70;;
27209;SDS011;14721;42.668;23.386;2022-12-18T01:36:22;10.23;;;5.27;;
27209;SDS011;14721;42.668;23.386;2022-12-18T01:38:52;12.83;;;5.30;;
27209;SDS011;14721;42.668;23.386;2022-12-18T01:41:23;10.43;;;4.97;;
27209;SDS011;14721;42.668;23.386;2022-12-18T01:43:54;8.80;;;4.83;;
27209;SDS011;14721;42.668;23.386;2022-12-18T01:46:22;9.93;;;4.23;;
27209;SDS011;14721;42.668;23.386;2022-12-18T01:48:57;10.13;;;5.00;;
27209;SDS011;14721;42.668;23.386;2022-12-18T01:51:27;10.03;;;5.17;;
27209;SDS011;14721;42.668;23.386;2022-12-18T01:53:55;10.23;;;4.40;;
27209;SDS011;14721;42.668;23.386;2022-12-18T01:56:23;9.87;;;5.37;;
27209;SDS011;14721;42.668;23.386;2022-12-18T01:59:03;9.70;;;4.80;;
27209;SDS011;14721;42.668;23.386;2022-12-18T02:01:31;9.97;;;4.70;;
27209;SDS011;14721;42.668;23.386;2022-12-18T02:04:18;6.03;;;3.20;;
27209;SDS011;14721;42.668;23.386;2022-12-18T02:07:04;9.77;;;5.57;;
27209;SDS011;14721;42.668;23.386;2022-12-18T02:09:47;10.33;;;5.13;;
27209;SDS011;14721;42.668;23.386;2022-12-18T02:12:20;7.83;;;4.50;;
27209;SDS011;14721;42.668;23.386;2022-12-18T02:15:09;13.57;;;6.07;;
27209;SDS011;14721;42.668;23.386;2022-12-18T02:20:25;8.00;;;4.47;;
27209;SDS011;14721;42.668;23.386;2022-12-18T02:23:24;7.03;;;4.37;;
27209;SDS011;14721;42.668;23.386;2022-12-18T02:26:00;8.23;;;4.47;;
27209;SDS011;14721;42.668;23.386;2022-12-18T02:28:53;10.00;;;4.50;;
27209;SDS011;14721;42.668;23.386;2022-12-18T02:31:21;9.00;;;4.10;;
27209;SDS011;14721;42.668;23.386;2022-12-18T02:33:53;7.53;;;3.90;;
27209;SDS011;14721;42.668;23.386;2022-12-18T02:36:24;9.33;;;4.80;;
27209;SDS011;14721;42.668;23.386;2022-12-18T02:38:53;9.67;;;4.00;;
27209;SDS011;14721;42.668;23.386;2022-12-18T02:41:21;7.13;;;4.37;;
27209;SDS011;14721;42.668;23.386;2022-12-18T02:43:58;7.83;;;3.80;;
27209;SDS011;14721;42.668;23.386;2022-12-18T02:46:31;6.37;;;4.47;;
27209;SDS011;14721;42.668;23.386;2022-12-18T02:49:17;8.73;;;4.50;;
27209;SDS011;14721;42.668;23.386;2022-12-18T02:51:50;7.60;;;3.90;;
27209;SDS011;14721;42.668;23.386;2022-12-18T02:56:54;8.63;;;4.47;;
27209;SDS011;14721;42.668;23.386;2022-12-18T02:59:30;9.23;;;5.07;;
27209;SDS011;14721;42.668;23.386;2022-12-18T03:02:26;8.63;;;4.50;;
27209;SDS011;14721;42.668;23.386;2022-12-18T03:05:04;8.30;;;4.67;;
27209;SDS011;14721;42.668;23.386;2022-12-18T03:07:38;10.83;;;5.50;;
27209;SDS011;14721;42.668;23.386;2022-12-18T03:10:27;8.97;;;4.87;;
27209;SDS011;14721;42.668;23.386;2022-12-18T03:13:06;8.03;;;5.37;;
27209;SDS011;14721;42.668;23.386;2022-12-18T03:15:38;10.97;;;5.07;;
27209;SDS011;14721;42.668;23.386;2022-12-18T03:18:18;9.13;;;4.37;;
27209;SDS011;14721;42.668;23.386;2022-12-18T03:20:51;12.93;;;5.73;;
27209;SDS011;14721;42.668;23.386;2022-12-18T03:23:24;7.73;;;4.93;;
27209;SDS011;14721;42.668;23.386;2022-12-18T03:26:00;10.17;;;4.50;;
27209;SDS011;14721;42.668;23.386;2022-12-18T03:28:31;10.20;;;5.33;;
27209;SDS011;14721;42.668;23.386;2022-12-18T03:31:04;7.07;;;4.27;;
27209;SDS011;14721;42.668;23.386;2022-12-18T03:33:41;8.53;;;3.73;;
27209;SDS011;14721;42.668;23.386;2022-12-18T03:36:18;10.07;;;5.13;;
27209;SDS011;14721;42.668;23.386;2022-12-18T03:38:45;13.47;;;5.03;;
27209;SDS011;14721;42.668;23.386;2022-12-18T03:44:03;9.30;;;5.00;;
27209;SDS011;14721;42.668;23.386;2022-12-18T03:46:33;8.97;;;4.53;;
27209;SDS011;14721;42.668;23.386;2022-12-18T03:51:56;8.53;;;4.33;;
27209;SDS011;14721;42.668;23.386;2022-12-18T03:54:31;11.33;;;4.77;;
27209;SDS011;14721;42.668;23.386;2022-12-18T03:57:02;8.50;;;4.30;;
27209;SDS011;14721;42.668;23.386;2022-12-18T03:59:39;10.80;;;4.60;;
27209;SDS011;14721;42.668;23.386;2022-12-18T04:02:06;11.47;;;4.97;;
27209;SDS011;14721;42.668;23.386;2022-12-18T04:04:35;7.93;;;4.60;;
27209;SDS011;14721;42.668;23.386;2022-12-18T04:07:04;6.70;;;3.40;;
27209;SDS011;14721;42.668;23.386;2022-12-18T04:09:31;9.33;;;4.40;;
27209;SDS011;14721;42.668;23.386;2022-12-18T04:11:58;9.50;;;5.37;;
27209;SDS011;14721;42.668;23.386;2022-12-18T04:14:25;11.20;;;4.57;;
27209;SDS011;14721;42.668;23.386;2022-12-18T04:16:51;11.77;;;4.60;;
27209;SDS011;14721;42.668;23.386;2022-12-18T04:19:19;9.03;;;4.30;;
27209;SDS011;14721;42.668;23.386;2022-12-18T04:21:45;8.20;;;4.27;;
27209;SDS011;14721;42.668;23.386;2022-12-18T04:24:13;9.17;;;4.70;;
27209;SDS011;14721;42.668;23.386;2022-12-18T04:26:39;15.80;;;5.13;;
27209;SDS011;14721;42.668;23.386;2022-12-18T04:29:05;8.33;;;4.63;;
27209;SDS011;14721;42.668;23.386;2022-12-18T04:31:31;12.03;;;5.67;;
27209;SDS011;14721;42.668;23.386;2022-12-18T04:34:00;10.63;;;5.23;;
27209;SDS011;14721;42.668;23.386;2022-12-18T04:36:28;9.60;;;4.87;;
27209;SDS011;14721;42.668;23.386;2022-12-18T04:38:56;8.73;;;4.83;;
27209;SDS011;14721;42.668;23.386;2022-12-18T04:41:23;10.27;;;6.00;;
27209;SDS011;14721;42.668;23.386;2022-12-18T04:43:49;13.10;;;5.80;;
27209;SDS011;14721;42.668;23.386;2022-12-18T04:46:15;11.27;;;4.70;;
27209;SDS011;14721;42.668;23.386;2022-12-18T04:48:41;9.77;;;5.27;;
27209;SDS011;14721;42.668;23.386;2022-12-18T04:51:07;12.23;;;5.80;;
27209;SDS011;14721;42.668;23.386;2022-12-18T04:53:33;18.10;;;6.90;;
27209;SDS011;14721;42.668;23.386;2022-12-18T04:56:03;13.23;;;5.73;;
27209;SDS011;14721;42.668;23.386;2022-12-18T04:58:34;13.10;;;5.97;;
27209;SDS011;14721;42.668;23.386;2022-12-18T05:01:01;14.40;;;7.00;;
27209;SDS011;14721;42.668;23.386;2022-12-18T05:03:27;9.33;;;4.57;;
27209;SDS011;14721;42.668;23.386;2022-12-18T05:05:53;10.50;;;5.77;;
27209;SDS011;14721;42.668;23.386;2022-12-18T05:08:19;13.40;;;6.33;;
27209;SDS011;14721;42.668;23.386;2022-12-18T05:10:45;13.13;;;6.53;;
27209;SDS011;14721;42.668;23.386;2022-12-18T05:13:12;15.47;;;6.63;;
27209;SDS011;14721;42.668;23.386;2022-12-18T05:15:40;12.20;;;6.47;;
27209;SDS011;14721;42.668;23.386;2022-12-18T05:18:16;16.33;;;6.83;;
27209;SDS011;14721;42.668;23.386;2022-12-18T05:20:43;15.33;;;7.50;;
27209;SDS011;14721;42.668;23.386;2022-12-18T05:23:22;12.90;;;6.17;;
27209;SDS011;14721;42.668;23.386;2022-12-18T05:26:02;14.17;;;6.90;;
27209;SDS011;14721;42.668;23.386;2022-12-18T05:28:47;11.50;;;6.00;;
27209;SDS011;14721;42.668;23.386;2022-12-18T05:31:16;16.13;;;6.57;;
27209;SDS011;14721;42.668;23.386;2022-12-18T05:33:48;13.27;;;5.83;;
27209;SDS011;14721;42.668;23.386;2022-12-18T05:36:20;14.20;;;7.03;;
27209;SDS011;14721;42.668;23.386;2022-12-18T05:38:52;13.03;;;5.90;;
27209;SDS011;14721;42.668;23.386;2022-12-18T05:41:29;12.70;;;6.20;;
27209;SDS011;14721;42.668;23.386;2022-12-18T05:44:03;15.63;;;5.97;;
27209;SDS011;14721;42.668;23.386;2022-12-18T05:46:35;14.77;;;6.40;;
27209;SDS011;14721;42.668;23.386;2022-12-18T05:49:07;13.60;;;6.43;;
27209;SDS011;14721;42.668;23.386;2022-12-18T05:51:36;15.30;;;6.53;;
27209;SDS011;14721;42.668;23.386;2022-12-18T05:54:07;14.53;;;6.10;;
27209;SDS011;14721;42.668;23.386;2022-12-18T05:56:36;14.63;;;5.47;;
27209;SDS011;14721;42.668;23.386;2022-12-18T05:59:14;11.00;;;5.77;;
27209;SDS011;14721;42.668;23.386;2022-12-18T06:01:52;15.53;;;7.07;;
27209;SDS011;14721;42.668;23.386;2022-12-18T06:04:24;11.17;;;5.17;;
27209;SDS011;14721;42.668;23.386;2022-12-18T06:07:02;18.57;;;7.27;;
27209;SDS011;14721;42.668;23.386;2022-12-18T06:09:34;12.13;;;6.07;;
27209;SDS011;14721;42.668;23.386;2022-12-18T06:12:09;16.03;;;7.83;;
27209;SDS011;14721;42.668;23.386;2022-12-18T06:14:36;17.93;;;7.90;;
27209;SDS011;14721;42.668;23.386;2022-12-18T06:17:08;16.30;;;7.73;;
27209;SDS011;14721;42.668;23.386;2022-12-18T06:19:41;13.70;;;6.23;;
27209;SDS011;14721;42.668;23.386;2022-12-18T06:22:10;15.83;;;6.33;;
27209;SDS011;14721;42.668;23.386;2022-12-18T06:24:42;18.40;;;8.43;;
27209;SDS011;14721;42.668;23.386;2022-12-18T06:27:14;10.30;;;5.30;;
27209;SDS011;14721;42.668;23.386;2022-12-18T06:29:45;13.53;;;6.70;;
27209;SDS011;14721;42.668;23.386;2022-12-18T06:32:15;10.87;;;6.20;;
27209;SDS011;14721;42.668;23.386;2022-12-18T06:34:43;15.10;;;6.60;;
27209;SDS011;14721;42.668;23.386;2022-12-18T06:37:12;15.80;;;7.40;;
27209;SDS011;14721;42.668;23.386;2022-12-18T06:39:43;14.27;;;6.77;;
27209;SDS011;14721;42.668;23.386;2022-12-18T06:42:18;14.97;;;7.03;;
27209;SDS011;14721;42.668;23.386;2022-12-18T06:44:57;17.80;;;8.73;;
27209;SDS011;14721;42.668;23.386;2022-12-18T06:47:34;15.43;;;6.13;;
27209;SDS011;14721;42.668;23.386;2022-12-18T06:50:09;12.93;;;6.63;;
27209;SDS011;14721;42.668;23.386;2022-12-18T06:52:46;20.80;;;7.90;;
27209;SDS011;14721;42.668;23.386;2022-12-18T06:55:18;17.43;;;7.37;;
27209;SDS011;14721;42.668;23.386;2022-12-18T06:57:59;15.67;;;7.27;;
27209;SDS011;14721;42.668;23.386;2022-12-18T07:00:35;13.80;;;7.10;;
27209;SDS011;14721;42.668;23.386;2022-12-18T07:03:07;15.70;;;7.77;;
27209;SDS011;14721;42.668;23.386;2022-12-18T07:05:40;16.10;;;7.20;;
27209;SDS011;14721;42.668;23.386;2022-12-18T07:08:18;14.07;;;7.03;;
27209;SDS011;14721;42.668;23.386;2022-12-18T07:10:52;16.10;;;6.97;;
27209;SDS011;14721;42.668;23.386;2022-12-18T07:13:30;16.70;;;6.63;;
27209;SDS011;14721;42.668;23.386;2022-12-18T07:16:03;15.33;;;6.27;;
27209;SDS011;14721;42.668;23.386;2022-12-18T07:18:34;12.60;;;6.23;;
27209;SDS011;14721;42.668;23.386;2022-12-18T07:21:07;15.10;;;7.30;;
27209;SDS011;14721;42.668;23.386;2022-12-18T07:23:54;17.57;;;7.57;;
27209;SDS011;14721;42.668;23.386;2022-12-18T07:26:28;21.37;;;7.17;;
27209;SDS011;14721;42.668;23.386;2022-12-18T07:28:56;16.47;;;6.93;;
27209;SDS011;14721;42.668;23.386;2022-12-18T07:31:23;17.90;;;7.47;;
27209;SDS011;14721;42.668;23.386;2022-12-18T07:33:52;15.23;;;7.80;;
27209;SDS011;14721;42.668;23.386;2022-12-18T07:36:20;16.20;;;7.10;;
27209;SDS011;14721;42.668;23.386;2022-12-18T07:38:55;18.17;;;7.30;;
27209;SDS011;14721;42.668;23.386;2022-12-18T07:41:28;18.87;;;8.97;;
27209;SDS011;14721;42.668;23.386;2022-12-18T07:44:00;19.10;;;8.17;;
27209;SDS011;14721;42.668;23.386;2022-12-18T07:46:34;16.40;;;7.80;;
27209;SDS011;14721;42.668;23.386;2022-12-18T07:49:04;13.97;;;8.10;;
27209;SDS011;14721;42.668;23.386;2022-12-18T07:51:43;18.60;;;8.93;;
27209;SDS011;14721;42.668;23.386;2022-12-18T07:54:22;15.80;;;7.70;;
27209;SDS011;14721;42.668;23.386;2022-12-18T07:57:03;15.93;;;5.33;;
27209;SDS011;14721;42.668;23.386;2022-12-18T07:59:28;17.27;;;8.30;;
27209;SDS011;14721;42.668;23.386;2022-12-18T08:02:00;18.97;;;8.03;;
27209;SDS011;14721;42.668;23.386;2022-12-18T08:04:34;15.50;;;8.07;;
27209;SDS011;14721;42.668;23.386;2022-12-18T08:07:05;19.63;;;9.17;;
27209;SDS011;14721;42.668;23.386;2022-12-18T08:09:34;18.00;;;8.57;;
27209;SDS011;14721;42.668;23.386;2022-12-18T08:12:00;13.43;;;6.90;;
27209;SDS011;14721;42.668;23.386;2022-12-18T08:14:25;20.13;;;9.93;;
27209;SDS011;14721;42.668;23.386;2022-12-18T08:16:51;16.83;;;7.80;;
27209;SDS011;14721;42.668;23.386;2022-12-18T08:19:17;19.50;;;9.93;;
27209;SDS011;14721;42.668;23.386;2022-12-18T08:21:45;24.53;;;9.80;;
27209;SDS011;14721;42.668;23.386;2022-12-18T08:24:13;25.93;;;10.20;;
27209;SDS011;14721;42.668;23.386;2022-12-18T08:26:39;21.87;;;9.27;;
27209;SDS011;14721;42.668;23.386;2022-12-18T08:29:05;17.63;;;8.37;;
27209;SDS011;14721;42.668;23.386;2022-12-18T08:31:31;19.57;;;9.27;;
27209;SDS011;14721;42.668;23.386;2022-12-18T08:33:59;19.33;;;9.37;;
27209;SDS011;14721;42.668;23.386;2022-12-18T08:36:25;20.03;;;9.40;;
27209;SDS011;14721;42.668;23.386;2022-12-18T08:38:56;17.87;;;7.93;;
27209;SDS011;14721;42.668;23.386;2022-12-18T08:41:28;17.20;;;8.73;;
27209;SDS011;14721;42.668;23.386;2022-12-18T08:43:57;24.50;;;8.97;;
27209;SDS011;14721;42.668;23.386;2022-12-18T08:46:44;21.07;;;8.57;;
27209;SDS011;14721;42.668;23.386;2022-12-18T08:49:13;19.77;;;8.43;;
27209;SDS011;14721;42.668;23.386;2022-12-18T08:51:43;21.30;;;8.53;;
27209;SDS011;14721;42.668;23.386;2022-12-18T08:54:15;21.47;;;9.73;;
27209;SDS011;14721;42.668;23.386;2022-12-18T08:56:43;22.93;;;9.00;;
27209;SDS011;14721;42.668;23.386;2022-12-18T08:59:12;20.13;;;9.13;;
27209;SDS011;14721;42.668;23.386;2022-12-18T09:01:41;22.73;;;8.60;;
27209;SDS011;14721;42.668;23.386;2022-12-18T09:04:16;20.77;;;9.13;;
27209;SDS011;14721;42.668;23.386;2022-12-18T09:06:44;25.00;;;9.40;;
27209;SDS011;14721;42.668;23.386;2022-12-18T09:09:19;19.93;;;8.00;;
27209;SDS011;14721;42.668;23.386;2022-12-18T09:11:51;18.87;;;8.73;;
27209;SDS011;14721;42.668;23.386;2022-12-18T09:14:19;19.17;;;8.77;;
27209;SDS011;14721;42.668;23.386;2022-12-18T09:16:55;17.60;;;8.90;;
27209;SDS011;14721;42.668;23.386;2022-12-18T09:19:20;20.30;;;7.83;;
27209;SDS011;14721;42.668;23.386;2022-12-18T09:21:52;16.83;;;8.43;;
27209;SDS011;14721;42.668;23.386;2022-12-18T09:24:24;15.87;;;7.77;;
27209;SDS011;14721;42.668;23.386;2022-12-18T09:26:53;19.93;;;9.00;;
27209;SDS011;14721;42.668;23.386;2022-12-18T09:29:24;16.13;;;7.47;;
27209;SDS011;14721;42.668;23.386;2022-12-18T09:31:54;19.53;;;8.17;;
27209;SDS011;14721;42.668;23.386;2022-12-18T09:34:25;15.83;;;7.47;;
27209;SDS011;14721;42.668;23.386;2022-12-18T09:36:56;19.97;;;8.30;;
27209;SDS011;14721;42.668;23.386;2022-12-18T09:39:27;18.00;;;7.57;;
27209;SDS011;14721;42.668;23.386;2022-12-18T09:41:53;16.70;;;7.10;;
27209;SDS011;14721;42.668;23.386;2022-12-18T09:44:40;16.77;;;7.80;;
27209;SDS011;14721;42.668;23.386;2022-12-18T09:50:12;19.17;;;8.00;;
27209;SDS011;14721;42.668;23.386;2022-12-18T09:53:04;17.27;;;7.87;;
27209;SDS011;14721;42.668;23.386;2022-12-18T09:55:45;15.43;;;7.33;;
27209;SDS011;14721;42.668;23.386;2022-12-18T10:00:56;16.43;;;7.60;;
27209;SDS011;14721;42.668;23.386;2022-12-18T10:03:22;20.23;;;8.43;;
27209;SDS011;14721;42.668;23.386;2022-12-18T10:14:43;21.57;;;7.80;;
27209;SDS011;14721;42.668;23.386;2022-12-18T10:20:01;12.70;;;6.83;;
27209;SDS011;14721;42.668;23.386;2022-12-18T10:22:40;20.50;;;9.10;;
27209;SDS011;14721;42.668;23.386;2022-12-18T10:25:24;21.63;;;6.67;;
27209;SDS011;14721;42.668;23.386;2022-12-18T10:28:00;14.37;;;6.97;;
27209;SDS011;14721;42.668;23.386;2022-12-18T10:30:43;14.20;;;6.40;;
27209;SDS011;14721;42.668;23.386;2022-12-18T10:33:12;15.83;;;6.37;;
27209;SDS011;14721;42.668;23.386;2022-12-18T10:35:50;18.93;;;7.57;;
27209;SDS011;14721;42.668;23.386;2022-12-18T10:46:01;19.17;;;8.30;;
27209;SDS011;14721;42.668;23.386;2022-12-18T10:48:42;15.67;;;6.93;;
27209;SDS011;14721;42.668;23.386;2022-12-18T10:51:25;16.60;;;7.17;;
27209;SDS011;14721;42.668;23.386;2022-12-18T10:53:56;19.10;;;7.93;;
27209;SDS011;14721;42.668;23.386;2022-12-18T10:56:45;18.07;;;7.87;;
27209;SDS011;14721;42.668;23.386;2022-12-18T10:59:15;24.63;;;9.03;;
27209;SDS011;14721;42.668;23.386;2022-12-18T11:01:52;17.03;;;8.03;;
27209;SDS011;14721;42.668;23.386;2022-12-18T11:04:23;22.23;;;9.47;;
27209;SDS011;14721;42.668;23.386;2022-12-18T11:17:31;13.10;;;7.20;;
27209;SDS011;14721;42.668;23.386;2022-12-18T11:20:02;22.80;;;9.67;;
27209;SDS011;14721;42.668;23.386;2022-12-18T11:22:33;17.13;;;8.13;;
27209;SDS011;14721;42.668;23.386;2022-12-18T11:25:27;17.60;;;7.93;;
27209;SDS011;14721;42.668;23.386;2022-12-18T11:28:05;18.33;;;7.83;;
27209;SDS011;14721;42.668;23.386;2022-12-18T11:33:41;17.17;;;8.40;;
27209;SDS011;14721;42.668;23.386;2022-12-18T11:36:35;20.07;;;8.87;;
27209;SDS011;14721;42.668;23.386;2022-12-18T11:41:54;22.57;;;9.53;;
27209;SDS011;14721;42.668;23.386;2022-12-18T11:50:32;21.87;;;8.73;;
27209;SDS011;14721;42.668;23.386;2022-12-18T11:53:02;17.23;;;8.63;;
27209;SDS011;14721;42.668;23.386;2022-12-18T12:15:24;19.77;;;7.23;;
27209;SDS011;14721;42.668;23.386;2022-12-18T12:18:06;18.97;;;7.50;;
27209;SDS011;14721;42.668;23.386;2022-12-18T12:20:50;17.10;;;8.07;;
27209;SDS011;14721;42.668;23.386;2022-12-18T12:34:54;17.63;;;9.00;;
27209;SDS011;14721;42.668;23.386;2022-12-18T12:40:34;20.60;;;8.10;;
27209;SDS011;14721;42.668;23.386;2022-12-18T12:43:12;14.63;;;7.63;;
27209;SDS011;14721;42.668;23.386;2022-12-18T12:45:46;16.30;;;7.37;;
27209;SDS011;14721;42.668;23.386;2022-12-18T12:50:49;20.57;;;7.90;;
27209;SDS011;14721;42.668;23.386;2022-12-18T12:53:24;17.97;;;8.77;;
27209;SDS011;14721;42.668;23.386;2022-12-18T12:55:54;17.07;;;7.53;;
27209;SDS011;14721;42.668;23.386;2022-12-18T12:58:26;21.47;;;8.30;;
27209;SDS011;14721;42.668;23.386;2022-12-18T13:04:21;20.87;;;8.63;;
27209;SDS011;14721;42.668;23.386;2022-12-18T13:07:31;23.43;;;9.23;;
27209;SDS011;14721;42.668;23.386;2022-12-18T13:13:07;16.07;;;7.37;;
27209;SDS011;14721;42.668;23.386;2022-12-18T13:20:36;21.43;;;8.10;;
27209;SDS011;14721;42.668;23.386;2022-12-18T13:34:18;21.63;;;8.73;;
27209;SDS011;14721;42.668;23.386;2022-12-18T13:36:46;18.30;;;8.10;;
27209;SDS011;14721;42.668;23.386;2022-12-18T13:41:42;18.50;;;8.37;;
27209;SDS011;14721;42.668;23.386;2022-12-18T13:44:29;23.93;;;8.50;;
27209;SDS011;14721;42.668;23.386;2022-12-18T13:47:05;14.90;;;7.07;;
27209;SDS011;14721;42.668;23.386;2022-12-18T13:49:49;21.33;;;9.33;;
27209;SDS011;14721;42.668;23.386;2022-12-18T13:52:17;20.83;;;8.40;;
27209;SDS011;14721;42.668;23.386;2022-12-18T13:54:50;20.33;;;10.10;;
27209;SDS011;14721;42.668;23.386;2022-12-18T13:57:28;23.20;;;9.20;;
27209;SDS011;14721;42.668;23.386;2022-12-18T14:00:26;19.80;;;8.80;;
27209;SDS011;14721;42.668;23.386;2022-12-18T14:02:53;18.70;;;8.83;;
27209;SDS011;14721;42.668;23.386;2022-12-18T14:05:35;20.50;;;8.80;;
27209;SDS011;14721;42.668;23.386;2022-12-18T14:08:07;22.43;;;10.20;;
27209;SDS011;14721;42.668;23.386;2022-12-18T14:11:12;18.50;;;8.00;;
27209;SDS011;14721;42.668;23.386;2022-12-18T14:13:49;22.00;;;8.33;;
27209;SDS011;14721;42.668;23.386;2022-12-18T14:16:15;20.20;;;9.67;;
27209;SDS011;14721;42.668;23.386;2022-12-18T14:18:46;20.47;;;8.83;;
27209;SDS011;14721;42.668;23.386;2022-12-18T14:21:27;21.03;;;9.03;;
27209;SDS011;14721;42.668;23.386;2022-12-18T14:26:41;16.87;;;7.47;;
27209;SDS011;14721;42.668;23.386;2022-12-18T14:29:24;14.97;;;7.73;;
27209;SDS011;14721;42.668;23.386;2022-12-18T14:32:13;14.37;;;7.13;;
27209;SDS011;14721;42.668;23.386;2022-12-18T14:34:50;21.77;;;8.87;;
27209;SDS011;14721;42.668;23.386;2022-12-18T14:37:25;17.33;;;7.80;;
27209;SDS011;14721;42.668;23.386;2022-12-18T14:39:58;14.33;;;6.00;;
27209;SDS011;14721;42.668;23.386;2022-12-18T14:42:26;19.27;;;8.17;;
27209;SDS011;14721;42.668;23.386;2022-12-18T14:47:59;16.17;;;7.47;;
27209;SDS011;14721;42.668;23.386;2022-12-18T14:50:25;16.03;;;6.93;;
27209;SDS011;14721;42.668;23.386;2022-12-18T14:52:51;18.40;;;7.60;;
27209;SDS011;14721;42.668;23.386;2022-12-18T14:55:18;16.67;;;7.13;;
27209;SDS011;14721;42.668;23.386;2022-12-18T14:57:45;23.30;;;6.93;;
27209;SDS011;14721;42.668;23.386;2022-12-18T15:00:20;14.40;;;6.23;;
27209;SDS011;14721;42.668;23.386;2022-12-18T15:02:48;16.13;;;6.50;;
27209;SDS011;14721;42.668;23.386;2022-12-18T15:05:19;16.23;;;7.33;;
27209;SDS011;14721;42.668;23.386;2022-12-18T15:07:54;16.03;;;6.77;;
27209;SDS011;14721;42.668;23.386;2022-12-18T15:10:30;12.73;;;5.53;;
27209;SDS011;14721;42.668;23.386;2022-12-18T15:20:44;13.93;;;7.30;;
27209;SDS011;14721;42.668;23.386;2022-12-18T15:25:47;17.37;;;7.03;;
27209;SDS011;14721;42.668;23.386;2022-12-18T15:28:24;16.20;;;6.40;;
27209;SDS011;14721;42.668;23.386;2022-12-18T15:36:13;12.30;;;5.73;;
27209;SDS011;14721;42.668;23.386;2022-12-18T15:38:49;15.13;;;6.67;;
27209;SDS011;14721;42.668;23.386;2022-12-18T15:41:17;15.60;;;6.30;;
27209;SDS011;14721;42.668;23.386;2022-12-18T15:43:45;16.77;;;7.03;;
27209;SDS011;14721;42.668;23.386;2022-12-18T15:46:19;15.80;;;7.43;;
27209;SDS011;14721;42.668;23.386;2022-12-18T15:48:54;13.93;;;6.67;;
27209;SDS011;14721;42.668;23.386;2022-12-18T15:51:28;13.90;;;6.67;;
27209;SDS011;14721;42.668;23.386;2022-12-18T15:54:02;17.13;;;6.87;;
27209;SDS011;14721;42.668;23.386;2022-12-18T15:56:32;16.47;;;6.30;;
27209;SDS011;14721;42.668;23.386;2022-12-18T15:59:19;13.17;;;5.50;;
27209;SDS011;14721;42.668;23.386;2022-12-18T16:01:47;16.87;;;6.37;;
27209;SDS011;14721;42.668;23.386;2022-12-18T16:04:23;17.20;;;6.97;;
27209;SDS011;14721;42.668;23.386;2022-12-18T16:06:54;15.17;;;6.80;;
27209;SDS011;14721;42.668;23.386;2022-12-18T16:09:29;19.07;;;6.43;;
27209;SDS011;14721;42.668;23.386;2022-12-18T16:11:58;16.30;;;6.97;;
27209;SDS011;14721;42.668;23.386;2022-12-18T16:14:29;15.07;;;7.20;;
27209;SDS011;14721;42.668;23.386;2022-12-18T16:17:03;15.37;;;6.87;;
27209;SDS011;14721;42.668;23.386;2022-12-18T16:19:37;18.23;;;7.20;;
27209;SDS011;14721;42.668;23.386;2022-12-18T16:22:03;15.17;;;7.23;;
27209;SDS011;14721;42.668;23.386;2022-12-18T16:24:40;14.90;;;5.77;;
27209;SDS011;14721;42.668;23.386;2022-12-18T16:27:07;17.10;;;7.97;;
27209;SDS011;14721;42.668;23.386;2022-12-18T16:29:33;17.80;;;7.70;;
27209;SDS011;14721;42.668;23.386;2022-12-18T16:32:05;15.37;;;8.27;;
27209;SDS011;14721;42.668;23.386;2022-12-18T16:34:35;16.00;;;6.80;;
27209;SDS011;14721;42.668;23.386;2022-12-18T16:37:07;14.50;;;7.43;;
27209;SDS011;14721;42.668;23.386;2022-12-18T16:39:35;16.30;;;6.87;;
27209;SDS011;14721;42.668;23.386;2022-12-18T16:42:13;20.63;;;7.50;;
27209;SDS011;14721;42.668;23.386;2022-12-18T16:44:49;20.80;;;7.47;;
27209;SDS011;14721;42.668;23.386;2022-12-18T16:47:15;21.10;;;8.27;;
27209;SDS011;14721;42.668;23.386;2022-12-18T16:49:44;17.20;;;7.97;;
27209;SDS011;14721;42.668;23.386;2022-12-18T16:52:20;20.27;;;8.10;;
27209;SDS011;14721;42.668;23.386;2022-12-18T16:54:46;20.23;;;8.50;;
27209;SDS011;14721;42.668;23.386;2022-12-18T16:57:19;20.07;;;8.33;;
27209;SDS011;14721;42.668;23.386;2022-12-18T16:59:50;16.57;;;7.90;;
27209;SDS011;14721;42.668;23.386;2022-12-18T17:02:20;20.53;;;7.57;;
27209;SDS011;14721;42.668;23.386;2022-12-18T17:04:53;18.63;;;8.10;;
27209;SDS011;14721;42.668;23.386;2022-12-18T17:07:20;21.40;;;9.30;;
27209;SDS011;14721;42.668;23.386;2022-12-18T17:09:47;17.20;;;8.17;;
27209;SDS011;14721;42.668;23.386;2022-12-18T17:12:16;19.60;;;7.80;;
27209;SDS011;14721;42.668;23.386;2022-12-18T17:14:46;18.47;;;8.70;;
27209;SDS011;14721;42.668;23.386;2022-12-18T17:17:15;21.13;;;8.60;;